Flight Track Log - Related Links

Times and Time Zones

All times are in EDT time to prevent confusion due to time zone crossing. See the UCA4797 flight status page for this flight to view local times or setup timezone preferences in your user account.

Time Position Orientation Groundspeed Altitude Reporting Facility
EDT Latitude Longitude Course Direction KTS MPH feet Rate Location/Type
Fri 08:54:26 PM 41.4236 -81.8403 317° Northwest 132 152 1,700  Level Cleveland Center
Fri 08:55:02 PM 41.4442 -81.8656 309° West 165 190 2,200 1,185 Climbing Cleveland Center
Fri 08:55:47 PM 41.4667 -81.9022 288° West 170 196 3,300 1,543 Climbing Cleveland Center
Fri 08:56:47 PM 41.4806 -81.9578 253° West 175 201 4,900 850 Climbing Cleveland Center
Fri 08:57:47 PM 41.4631 -82.0322 252° West 172 198 5,000 50 Climbing Cleveland Center
Fri 08:58:47 PM 41.4431 -82.1150 254° West 219 252 5,000 400 Level Cleveland Center
Fri 08:59:47 PM 41.4253 -82.2003 245° Southwest 242 278 5,800 850 Climbing Cleveland Center
Fri 09:00:47 PM 41.3969 -82.2800 242° Southwest 242 278 6,700 1,050 Climbing Cleveland Center
Fri 09:01:47 PM 41.3689 -82.3511 245° Southwest 232 267 7,900 1,100 Climbing Cleveland Center
Fri 09:02:47 PM 41.3428 -82.4250 243° Southwest 225 259 8,900 550 Climbing Cleveland Center
Fri 09:03:47 PM 41.3167 -82.4936 256° West 225 259 9,000 350 Climbing Cleveland Center
Fri 09:04:47 PM 41.3003 -82.5842 265° West 242 278 9,600 1,150 Climbing Cleveland Center
Fri 09:05:47 PM 41.2947 -82.6614 309° West 234 269 11,300 1,350 Climbing Cleveland Center
Fri 09:06:47 PM 41.3314 -82.7208 309° West 190 219 12,300 1,000 Climbing Cleveland Center
Fri 09:07:47 PM 41.3678 -82.7800 307° West 207 238 13,300 1,000 Climbing Cleveland Center
Fri 09:08:47 PM 41.4039 -82.8450 307° West 217 250 14,300 1,000 Climbing Cleveland Center
Fri 09:09:47 PM 41.4422 -82.9128 308° West 217 250 15,300 950 Climbing Cleveland Center
Fri 09:10:47 PM 41.4825 -82.9806 308° West 224 258 16,200 900 Climbing Cleveland Center
Fri 09:11:47 PM 41.5186 -83.0431 308° West 224 258 17,100 900 Climbing Cleveland Center
Fri 09:12:47 PM 41.5569 -83.1083 305° West 224 258 18,000 850 Climbing Cleveland Center
Fri 09:13:47 PM 41.5908 -83.1736 309° West 224 258 18,800 750 Climbing Cleveland Center
Fri 09:14:47 PM 41.6250 -83.2306 308° West 224 258 19,500 600 Climbing Cleveland Center
Fri 09:15:47 PM 41.6631 -83.2958 307° West 224 258 20,000 250 Climbing Cleveland Center
Fri 09:16:47 PM 41.7031 -83.3672 306° West 237 273 20,000  Level Cleveland Center
Fri 09:17:47 PM 41.7469 -83.4469 307° West 251 289 20,000  Level Cleveland Center
Fri 09:18:47 PM 41.7947 -83.5328 308° West 262 302 20,000  Level Cleveland Center
Fri 09:19:47 PM 41.8408 -83.6131 306° West 262 302 20,000  Level Cleveland Center
Fri 09:20:47 PM 41.8844 -83.6931 306° West 267 307 20,000  Level Cleveland Center
Fri 09:21:47 PM 41.9281 -83.7733 308° West 267 307 20,000  Level Cleveland Center
Fri 09:22:47 PM 41.9739 -83.8511 306° West 267 307 20,000  Level Cleveland Center
Fri 09:23:47 PM 42.0175 -83.9317 306° West 267 307 20,000  Level Cleveland Center
Fri 09:24:47 PM 42.0628 -84.0153 310° West 267 307 20,000 -171 Level Cleveland Center
Fri 09:25:32 PM 42.0986 -84.0731 304° West 265 305 19,700 -743 Descending Cleveland Center
Fri 09:26:32 PM 42.1439 -84.1622 307° West 281 323 18,700 -1,041 Descending Cleveland Center
Fri 09:27:33 PM 42.1914 -84.2464 307° West 286 329 17,600 -1,082 Descending Cleveland Center
Fri 09:28:34 PM 42.2367 -84.3275 307° West 269 310 16,500 -1,091 Descending Cleveland Center
Fri 09:29:34 PM 42.2819 -84.4089 305° West 263 303 15,400 -1,101 Descending Cleveland Center
Fri 09:30:23 PM 42.3153 -84.4725 307° West 259 298 14,500 -1,101 Descending Cleveland Center
Fri 09:31:23 PM 42.3583 -84.5511 307° West 268 308 13,400 -1,134 Descending Cleveland Center
Fri 09:32:30 PM 42.4114 -84.6472 305° West 277 319 12,100 -1,125 Descending Cleveland Center
Fri 09:33:31 PM 42.4561 -84.7347 308° West 276 318 11,000 -1,041 Descending Cleveland Center
Fri 09:34:31 PM 42.4992 -84.8108 307° West 266 306 10,000 -574 Descending Cleveland Center
Fri 09:35:26 PM 42.5383 -84.8811 306° West 254 292 9,900 -517 Descending Cleveland Center
Fri 09:36:27 PM 42.5811 -84.9600 305° West 254 292 9,000 -522 Descending Cleveland Center
Fri 09:37:21 PM 42.6161 -85.0275 306° West 257 296 8,900 -52 Descending Cleveland Center
Fri 09:38:22 PM 42.6569 -85.1039 305° West 252 290 8,900  Level Cleveland Center
Fri 09:47:15 PM 42.8667 -85.5167 342° North  Level FlightAware Approximate
Fri 09:48:15 PM 42.9271 -85.5429 162° South  Level Estimated
Fri 09:49:15 PM 42.8667 -85.5167 162° South  Level FlightAware Approximate

Login

Don't have an account? Register now (free) for customized features, flight alerts, and more!